createdAt,value
2022-08-26T00:01:56.711Z,3.08
2022-08-26T00:04:25.774Z,3.10
2022-08-26T00:06:56.631Z,2.90
2022-08-26T00:09:25.477Z,3.03
2022-08-26T00:11:54.104Z,3.20
2022-08-26T00:14:24.173Z,2.63
2022-08-26T00:16:55.929Z,2.92
2022-08-26T00:19:23.677Z,3.03
2022-08-26T00:21:51.366Z,3.30
2022-08-26T00:24:20.446Z,2.80
2022-08-26T00:26:48.587Z,2.80
2022-08-26T00:29:17.329Z,2.45
2022-08-26T00:31:45.715Z,2.45
2022-08-26T00:34:14.274Z,2.42
2022-08-26T00:36:44.296Z,2.75
2022-08-26T00:39:11.624Z,3.17
2022-08-26T00:41:40.348Z,2.83
2022-08-26T00:44:09.014Z,2.67
2022-08-26T00:46:46.800Z,2.92
2022-08-26T00:49:19.913Z,3.15
2022-08-26T00:51:55.790Z,3.22
2022-08-26T00:54:26.965Z,2.90
2022-08-26T00:57:15.933Z,3.13
2022-08-26T00:59:54.987Z,3.00
2022-08-26T01:04:56.353Z,2.65
2022-08-26T01:07:30.158Z,3.05
2022-08-26T01:10:01.058Z,2.92
2022-08-26T01:12:32.465Z,3.15
2022-08-26T01:15:00.251Z,3.05
2022-08-26T01:17:27.272Z,3.13
2022-08-26T01:20:03.807Z,2.90
2022-08-26T01:22:41.911Z,3.22
2022-08-26T01:25:11.993Z,3.17
2022-08-26T01:27:39.497Z,2.83
2022-08-26T01:30:07.407Z,3.17
2022-08-26T01:32:36.332Z,3.22
2022-08-26T01:35:07.509Z,3.40
2022-08-26T01:37:39.099Z,3.10
2022-08-26T01:40:12.573Z,2.80
2022-08-26T01:42:41.290Z,2.85
2022-08-26T01:45:16.824Z,3.47
2022-08-26T01:47:44.656Z,3.03
2022-08-26T01:52:57.124Z,2.85
2022-08-26T01:55:33.478Z,3.47
2022-08-26T01:58:06.314Z,2.60
2022-08-26T02:00:35.944Z,2.95
2022-08-26T02:03:17.249Z,3.28
2022-08-26T02:06:00.335Z,2.90
2022-08-26T02:08:32.841Z,3.40
2022-08-26T02:11:00.407Z,3.28
2022-08-26T02:13:30.196Z,2.95
2022-08-26T02:16:00.656Z,3.42
2022-08-26T02:18:30.478Z,3.15
2022-08-26T02:20:57.730Z,3.55
2022-08-26T02:23:25.325Z,3.65
2022-08-26T02:26:17.958Z,3.15
2022-08-26T02:28:56.424Z,3.22
2022-08-26T02:31:24.754Z,2.72
2022-08-26T02:33:51.938Z,3.40
2022-08-26T02:36:28.715Z,3.55
2022-08-26T02:38:56.349Z,3.70
2022-08-26T02:41:23.692Z,3.53
2022-08-26T02:43:51.768Z,3.20
2022-08-26T02:46:28.040Z,3.13
2022-08-26T02:48:57.884Z,2.88
2022-08-26T02:51:25.354Z,3.38
2022-08-26T02:53:52.813Z,2.85
2022-08-26T02:56:20.015Z,3.50
2022-08-26T02:58:48.651Z,3.55
2022-08-26T03:03:50.680Z,3.22
2022-08-26T03:06:18.508Z,3.08
2022-08-26T03:08:46.702Z,3.30
2022-08-26T03:11:14.565Z,3.60
2022-08-26T03:13:42.476Z,3.10
2022-08-26T03:16:09.610Z,3.53
2022-08-26T03:18:37.022Z,3.22
2022-08-26T03:21:10.850Z,3.85
2022-08-26T03:23:39.736Z,3.53
2022-08-26T03:29:04.631Z,4.10
2022-08-26T03:31:34.157Z,3.58
2022-08-26T03:34:01.334Z,3.97
2022-08-26T03:36:30.005Z,3.80
2022-08-26T03:38:57.769Z,3.40
2022-08-26T03:41:24.919Z,3.85
2022-08-26T03:43:52.706Z,3.78
2022-08-26T03:46:21.626Z,3.67
2022-08-26T03:48:48.850Z,4.13
2022-08-26T03:51:19.177Z,4.95
2022-08-26T03:53:48.364Z,4.10
2022-08-26T03:56:15.553Z,4.13
2022-08-26T03:58:44.609Z,3.60
2022-08-26T04:01:16.278Z,3.53
2022-08-26T04:03:59.983Z,4.57
2022-08-26T04:06:44.888Z,3.92
2022-08-26T04:09:21.206Z,4.45
2022-08-26T04:11:50.754Z,4.50
2022-08-26T04:14:23.921Z,3.95
2022-08-26T04:16:53.189Z,4.00
2022-08-26T04:19:23.443Z,3.97
2022-08-26T04:21:53.278Z,4.35
2022-08-26T04:24:23.758Z,5.13
2022-08-26T04:26:53.992Z,4.65
2022-08-26T04:29:28.162Z,3.97
2022-08-26T04:31:56.227Z,4.55
2022-08-26T04:36:54.786Z,4.95
2022-08-26T04:39:22.181Z,3.75
2022-08-26T04:44:21.401Z,4.25
2022-08-26T04:46:51.003Z,5.07
2022-08-26T04:49:18.527Z,4.13
2022-08-26T04:51:46.341Z,4.95
2022-08-26T04:54:17.544Z,4.53
2022-08-26T04:56:48.568Z,5.40
2022-08-26T04:59:18.195Z,5.78
2022-08-26T05:01:50.394Z,5.05
2022-08-26T05:04:20.954Z,4.90
2022-08-26T05:06:49.277Z,4.88
2022-08-26T05:09:18.578Z,4.85
2022-08-26T05:11:48.342Z,5.13
2022-08-26T05:14:19.410Z,4.55
2022-08-26T05:16:47.960Z,4.78
2022-08-26T05:19:19.019Z,4.72
2022-08-26T05:21:48.532Z,4.55
2022-08-26T05:24:17.420Z,4.47
2022-08-26T05:26:45.440Z,4.72
2022-08-26T05:29:13.114Z,4.53
2022-08-26T05:31:40.609Z,5.10
2022-08-26T05:34:08.443Z,5.00
2022-08-26T05:36:37.024Z,5.78
2022-08-26T05:39:07.574Z,5.00
2022-08-26T05:41:44.855Z,4.10
2022-08-26T05:44:16.403Z,4.13
2022-08-26T05:46:44.871Z,5.25
2022-08-26T05:49:15.886Z,5.85
2022-08-26T05:51:47.746Z,5.18
2022-08-26T05:54:21.737Z,4.85
2022-08-26T05:59:24.374Z,4.40
2022-08-26T06:01:55.168Z,5.95
2022-08-26T06:04:29.270Z,4.63
2022-08-26T06:06:58.042Z,4.68
2022-08-26T06:09:27.043Z,4.97
2022-08-26T06:11:54.300Z,4.32
2022-08-26T06:14:21.815Z,4.78
2022-08-26T06:16:49.064Z,5.10
2022-08-26T06:19:17.701Z,5.43
2022-08-26T06:21:47.543Z,3.70
2022-08-26T06:24:39.554Z,4.82
2022-08-26T06:27:11.444Z,4.80
2022-08-26T06:29:40.939Z,3.63
2022-08-26T06:34:36.194Z,5.57
2022-08-26T06:37:03.768Z,5.55
2022-08-26T06:39:32.115Z,4.88
2022-08-26T06:42:00.576Z,4.55
2022-08-26T06:44:31.410Z,7.00
2022-08-26T06:47:02.093Z,3.88
2022-08-26T06:49:29.112Z,4.45
2022-08-26T06:51:59.680Z,5.97
2022-08-26T06:54:30.400Z,5.90
2022-08-26T06:56:59.103Z,4.63
2022-08-26T06:59:26.649Z,5.28
2022-08-26T07:01:54.862Z,5.32
2022-08-26T07:04:23.684Z,6.03
2022-08-26T07:06:53.830Z,5.72
2022-08-26T07:09:24.170Z,5.47
2022-08-26T07:11:57.328Z,5.53
2022-08-26T07:14:34.797Z,4.65
2022-08-26T07:17:04.424Z,6.15
2022-08-26T07:19:31.981Z,4.75
2022-08-26T07:22:07.268Z,4.43
2022-08-26T07:24:39.152Z,6.00
2022-08-26T07:27:09.275Z,5.75
2022-08-26T07:29:39.241Z,5.68
2022-08-26T07:32:07.105Z,6.15
2022-08-26T07:37:02.909Z,7.63
2022-08-26T07:42:08.173Z,4.70
2022-08-26T07:44:37.898Z,4.78
2022-08-26T07:47:10.083Z,3.83
2022-08-26T07:49:38.509Z,3.72
2022-08-26T07:52:07.450Z,4.65
2022-08-26T07:54:34.505Z,5.15
2022-08-26T07:57:05.080Z,5.50
2022-08-26T08:02:03.497Z,5.60
2022-08-26T08:04:30.493Z,3.97
2022-08-26T08:09:29.028Z,5.80
2022-08-26T08:11:56.353Z,4.47
2022-08-26T08:14:23.964Z,5.18
2022-08-26T08:16:54.624Z,4.72
2022-08-26T08:19:36.550Z,5.80
2022-08-26T08:22:17.809Z,5.05
2022-08-26T08:24:49.966Z,6.20
2022-08-26T08:27:23.851Z,5.30
2022-08-26T08:29:58.042Z,6.25
2022-08-26T08:32:25.705Z,5.28
2022-08-26T08:34:53.003Z,5.75
2022-08-26T08:37:20.042Z,6.03
2022-08-26T08:39:48.976Z,7.53
2022-08-26T08:44:53.306Z,6.53
2022-08-26T08:47:24.019Z,7.30
2022-08-26T08:49:54.052Z,6.85
2022-08-26T08:52:35.803Z,5.72
2022-08-26T08:55:09.494Z,6.47
2022-08-26T08:58:02.201Z,5.90
2022-08-26T09:00:57.059Z,6.88
2022-08-26T09:03:43.312Z,6.97
2022-08-26T09:06:18.771Z,5.72
2022-08-26T09:08:50.482Z,5.82
2022-08-26T09:11:20.080Z,5.68
2022-08-26T09:13:54.973Z,5.65
2022-08-26T09:16:43.286Z,6.35
2022-08-26T09:19:33.627Z,5.50
2022-08-26T09:22:07.009Z,6.22
2022-08-26T09:24:41.934Z,6.50
2022-08-26T09:27:42.000Z,5.35
2022-08-26T09:30:14.380Z,5.95
2022-08-26T09:32:55.770Z,4.43
2022-08-26T09:40:35.838Z,6.88
2022-08-26T09:43:22.375Z,6.45
2022-08-26T09:45:59.446Z,7.03
2022-08-26T09:48:27.225Z,6.50
2022-08-26T09:50:58.454Z,5.22
2022-08-26T09:53:35.063Z,7.18
2022-08-26T09:59:31.357Z,7.78
2022-08-26T10:02:18.620Z,8.13
2022-08-26T10:04:55.415Z,5.85
2022-08-26T10:07:56.153Z,6.10
2022-08-26T10:10:35.676Z,5.40
2022-08-26T10:13:12.620Z,4.43
2022-08-26T10:16:04.069Z,6.47
2022-08-26T10:18:39.980Z,7.00
2022-08-26T10:21:21.166Z,7.10
2022-08-26T10:23:55.563Z,7.40
2022-08-26T10:26:22.598Z,6.65
2022-08-26T10:29:19.933Z,6.30
2022-08-26T10:32:02.696Z,6.13
2022-08-26T10:34:33.523Z,7.55
2022-08-26T10:37:16.074Z,6.50
2022-08-26T10:39:47.013Z,6.35
2022-08-26T10:42:45.577Z,6.38
2022-08-26T10:45:39.063Z,6.80
2022-08-26T10:48:11.255Z,8.07
2022-08-26T10:50:47.607Z,6.40
2022-08-26T10:53:24.891Z,8.07
2022-08-26T10:56:18.887Z,7.68
2022-08-26T10:59:03.976Z,6.80
2022-08-26T11:01:47.048Z,5.85
2022-08-26T11:04:52.967Z,8.57
2022-08-26T11:07:53.644Z,6.63
2022-08-26T11:10:27.134Z,7.88
2022-08-26T11:13:04.692Z,6.80
2022-08-26T11:15:32.343Z,7.22
2022-08-26T11:18:10.709Z,9.43
2022-08-26T11:20:41.596Z,7.82
2022-08-26T11:23:27.279Z,8.43
2022-08-26T11:26:08.702Z,7.05
2022-08-26T11:28:48.465Z,6.65
2022-08-26T11:31:25.751Z,4.55
2022-08-26T11:34:08.766Z,5.97
2022-08-26T11:36:47.309Z,7.03
2022-08-26T11:39:24.702Z,5.72
2022-08-26T11:42:00.128Z,5.22
2022-08-26T11:44:46.741Z,7.20
2022-08-26T11:47:25.384Z,8.48
2022-08-26T11:50:07.995Z,4.95
2022-08-26T11:52:35.235Z,6.82
2022-08-26T11:55:14.456Z,4.65
2022-08-26T11:57:49.006Z,6.82
2022-08-26T12:00:33.517Z,8.77
2022-08-26T12:03:07.850Z,6.32
2022-08-26T12:05:42.341Z,7.50
2022-08-26T12:08:16.773Z,7.25
2022-08-26T12:10:46.198Z,6.43
2022-08-26T12:13:23.859Z,7.00
2022-08-26T12:15:57.889Z,7.85
2022-08-26T12:18:31.916Z,7.47
2022-08-26T12:23:45.138Z,5.80
2022-08-26T12:26:28.090Z,7.18
2022-08-26T12:29:27.223Z,7.35
2022-08-26T12:32:14.735Z,5.40
2022-08-26T12:34:51.057Z,8.30
2022-08-26T12:37:19.117Z,5.38
2022-08-26T12:39:48.908Z,7.03
2022-08-26T12:42:15.990Z,8.98
2022-08-26T12:44:54.729Z,6.25
2022-08-26T12:47:41.937Z,6.70
2022-08-26T12:50:22.953Z,6.22
2022-08-26T12:53:01.006Z,5.75
2022-08-26T12:55:41.493Z,6.20
2022-08-26T12:58:26.513Z,6.70
2022-08-26T13:00:59.480Z,7.03
2022-08-26T13:03:38.647Z,6.72
2022-08-26T13:06:23.381Z,7.32
2022-08-26T13:08:55.856Z,5.72
2022-08-26T13:11:35.807Z,6.18
2022-08-26T13:14:10.006Z,6.22
2022-08-26T13:16:39.469Z,7.35
2022-08-26T13:19:10.856Z,6.45
2022-08-26T13:21:50.779Z,6.95
2022-08-26T13:24:23.231Z,5.03
2022-08-26T13:26:50.696Z,5.35
2022-08-26T13:29:18.999Z,7.47
2022-08-26T13:31:46.984Z,5.28
2022-08-26T13:34:20.440Z,6.88
2022-08-26T13:36:49.624Z,5.97
2022-08-26T13:39:17.590Z,5.70
2022-08-26T13:44:16.711Z,7.07
2022-08-26T13:49:17.806Z,6.72
2022-08-26T13:51:44.852Z,5.88
2022-08-26T13:54:14.510Z,7.53
2022-08-26T13:56:42.012Z,7.60
2022-08-26T13:59:09.177Z,8.10
2022-08-26T14:01:37.351Z,8.20
2022-08-26T14:04:09.957Z,7.72
2022-08-26T14:06:37.699Z,7.70
2022-08-26T14:09:05.373Z,7.28
2022-08-26T14:11:36.998Z,6.60
2022-08-26T14:14:20.461Z,7.45
2022-08-26T14:16:59.508Z,5.65
2022-08-26T14:19:32.170Z,6.45
2022-08-26T14:22:03.862Z,7.25
2022-08-26T14:24:34.962Z,6.75
2022-08-26T14:27:02.695Z,6.68
2022-08-26T14:29:32.166Z,7.22
2022-08-26T14:32:06.952Z,6.45
2022-08-26T14:34:34.140Z,7.07
2022-08-26T14:37:16.144Z,7.10
2022-08-26T14:39:44.345Z,6.75
2022-08-26T14:42:15.149Z,7.22
2022-08-26T14:44:46.272Z,7.20
2022-08-26T14:47:13.412Z,6.65
2022-08-26T14:49:40.433Z,8.38
2022-08-26T14:52:10.296Z,8.32
2022-08-26T14:54:37.922Z,6.65
2022-08-26T14:57:08.014Z,6.03
2022-08-26T14:59:38.454Z,7.80
2022-08-26T15:02:08.356Z,8.07
2022-08-26T15:04:35.502Z,8.55
2022-08-26T15:09:37.866Z,9.30
2022-08-26T15:12:06.801Z,7.60
2022-08-26T15:14:34.284Z,7.93
2022-08-26T15:17:01.477Z,8.63
2022-08-26T15:19:29.447Z,9.27
2022-08-26T15:21:59.988Z,9.38
2022-08-26T15:24:30.355Z,8.85
2022-08-26T15:26:58.068Z,8.73
2022-08-26T15:29:25.152Z,7.35
2022-08-26T15:31:52.770Z,8.48
2022-08-26T15:34:32.413Z,6.55
2022-08-26T15:37:00.390Z,6.88
2022-08-26T15:39:32.141Z,5.43
2022-08-26T15:42:02.940Z,6.28
2022-08-26T15:44:30.845Z,5.72
2022-08-26T15:49:56.095Z,6.18
2022-08-26T15:52:40.423Z,7.75
2022-08-26T15:55:08.880Z,10.90
2022-08-26T15:57:38.546Z,9.98
2022-08-26T16:00:07.193Z,6.78
2022-08-26T16:02:49.861Z,6.97
2022-08-26T16:05:18.426Z,7.78
2022-08-26T16:07:47.781Z,7.05
2022-08-26T16:10:18.817Z,7.10
2022-08-26T16:12:46.874Z,8.00
2022-08-26T16:15:42.560Z,8.73
2022-08-26T16:18:14.185Z,8.02
2022-08-26T16:21:13.223Z,8.57
2022-08-26T16:26:38.212Z,13.63
2022-08-26T16:29:37.425Z,7.70
2022-08-26T16:32:08.869Z,8.43
2022-08-26T16:34:38.303Z,8.95
2022-08-26T16:37:23.630Z,9.23
2022-08-26T16:39:51.067Z,15.80
2022-08-26T16:42:20.195Z,12.63
2022-08-26T16:44:47.499Z,9.30
2022-08-26T16:47:20.181Z,9.32
2022-08-26T16:49:50.520Z,20.67
2022-08-26T16:52:20.857Z,9.82
2022-08-26T16:54:48.665Z,8.82
2022-08-26T16:57:17.229Z,9.05
2022-08-26T16:59:55.084Z,9.00
2022-08-26T17:02:24.538Z,8.82
2022-08-26T17:04:52.683Z,9.38
2022-08-26T17:07:23.534Z,11.38
2022-08-26T17:09:50.672Z,9.88
2022-08-26T17:12:21.398Z,10.07
2022-08-26T17:14:53.430Z,10.75
2022-08-26T17:18:16.500Z,7.28
2022-08-26T17:20:49.370Z,8.82
2022-08-26T17:23:24.352Z,7.13
2022-08-26T17:25:54.159Z,8.40
2022-08-26T17:28:21.421Z,8.05
2022-08-26T17:30:51.049Z,8.15
2022-08-26T17:33:22.921Z,7.45
2022-08-26T17:35:53.170Z,7.85
2022-08-26T17:38:29.975Z,7.82
2022-08-26T17:40:58.347Z,8.52
2022-08-26T17:43:27.713Z,8.48
2022-08-26T17:46:07.124Z,7.53
2022-08-26T17:48:36.345Z,8.05
2022-08-26T17:51:09.555Z,8.77
2022-08-26T17:53:39.593Z,9.23
2022-08-26T17:56:17.312Z,9.15
2022-08-26T17:58:56.843Z,7.78
2022-08-26T18:01:37.510Z,7.93
2022-08-26T18:04:13.260Z,6.90
2022-08-26T18:06:49.179Z,8.38
2022-08-26T18:09:22.959Z,8.60
2022-08-26T18:11:52.639Z,7.18
2022-08-26T18:14:22.722Z,5.53
2022-08-26T18:16:53.859Z,6.15
2022-08-26T18:19:21.369Z,6.32
2022-08-26T18:21:57.729Z,7.20
2022-08-26T18:24:30.429Z,6.70
2022-08-26T18:26:58.930Z,6.43
2022-08-26T18:29:27.678Z,6.03
2022-08-26T18:31:55.202Z,6.40
2022-08-26T18:34:31.903Z,6.43
2022-08-26T18:37:00.581Z,6.65
2022-08-26T18:39:29.899Z,6.60
2022-08-26T18:42:08.481Z,6.45
2022-08-26T18:44:36.550Z,6.35
2022-08-26T18:47:04.483Z,7.13
2022-08-26T18:49:33.873Z,5.68
2022-08-26T18:52:01.967Z,5.55
2022-08-26T18:54:30.103Z,6.70
2022-08-26T19:03:22.047Z,5.38
2022-08-26T19:10:46.778Z,3.92
2022-08-26T19:14:13.167Z,6.43
2022-08-26T19:19:43.907Z,4.88
2022-08-26T19:26:20.575Z,6.55
2022-08-26T19:30:11.820Z,6.13
2022-08-26T19:32:41.631Z,6.03
2022-08-26T19:35:09.536Z,4.75
2022-08-26T19:37:44.555Z,5.45
2022-08-26T19:40:17.529Z,5.57
2022-08-26T19:42:49.990Z,6.43
2022-08-26T19:45:25.199Z,5.68
2022-08-26T19:47:53.681Z,4.13
2022-08-26T19:50:22.927Z,4.90
2022-08-26T19:52:51.162Z,5.93
2022-08-26T19:55:20.531Z,5.57
2022-08-26T19:57:52.684Z,5.25
2022-08-26T20:00:29.842Z,5.32
2022-08-26T20:02:57.649Z,4.90
2022-08-26T20:10:24.908Z,4.28
2022-08-26T20:12:53.201Z,6.03
2022-08-26T20:15:23.618Z,4.75
2022-08-26T20:17:53.271Z,4.20
2022-08-26T20:20:39.219Z,5.18
2022-08-26T20:23:06.306Z,3.58
2022-08-26T20:25:36.454Z,4.57
2022-08-26T20:28:03.932Z,5.50
2022-08-26T20:30:31.056Z,4.18
2022-08-26T20:32:59.174Z,4.72
2022-08-26T20:35:26.217Z,4.72
2022-08-26T20:37:56.262Z,5.20
2022-08-26T20:40:24.474Z,4.82
2022-08-26T20:42:54.133Z,5.95
2022-08-26T20:45:21.251Z,4.78
2022-08-26T20:47:48.525Z,4.68
2022-08-26T20:50:17.664Z,4.43
2022-08-26T20:52:47.219Z,5.30
2022-08-26T20:55:14.962Z,5.50
2022-08-26T20:57:43.304Z,5.72
2022-08-26T21:00:13.367Z,5.47
2022-08-26T21:02:44.875Z,5.13
2022-08-26T21:05:14.599Z,4.47
2022-08-26T21:07:41.695Z,4.95
2022-08-26T21:10:12.712Z,4.97
2022-08-26T21:12:39.759Z,4.90
2022-08-26T21:15:07.558Z,4.85
2022-08-26T21:17:37.913Z,5.55
2022-08-26T21:20:05.331Z,3.88
2022-08-26T21:22:33.091Z,4.50
2022-08-26T21:25:00.742Z,4.88
2022-08-26T21:27:27.915Z,5.00
2022-08-26T21:29:55.127Z,4.50
2022-08-26T21:32:22.340Z,5.50
2022-08-26T21:34:49.414Z,4.68
2022-08-26T21:37:16.944Z,4.97
2022-08-26T21:39:44.463Z,4.95
2022-08-26T21:42:11.540Z,5.53
2022-08-26T21:44:39.190Z,4.60
2022-08-26T21:47:07.333Z,4.70
2022-08-26T21:49:35.533Z,4.47
2022-08-26T21:52:04.656Z,4.65
2022-08-26T21:54:32.493Z,3.70
2022-08-26T21:57:01.078Z,4.82
2022-08-26T21:59:28.688Z,3.83
2022-08-26T22:01:57.162Z,4.47
2022-08-26T22:04:48.106Z,3.92
2022-08-26T22:07:31.747Z,3.42
2022-08-26T22:09:59.139Z,4.10
2022-08-26T22:12:26.192Z,4.55
2022-08-26T22:14:54.713Z,4.05
2022-08-26T22:17:22.906Z,4.60
2022-08-26T22:19:50.569Z,4.07
2022-08-26T22:22:18.937Z,4.32
2022-08-26T22:24:54.710Z,4.03
2022-08-26T22:27:21.715Z,3.88
2022-08-26T22:29:50.508Z,3.83
2022-08-26T22:32:18.765Z,3.53
2022-08-26T22:34:45.781Z,3.15
2022-08-26T22:37:13.852Z,3.50
2022-08-26T22:39:41.079Z,3.15
2022-08-26T22:42:08.112Z,3.80
2022-08-26T22:44:36.990Z,3.75
2022-08-26T22:47:04.217Z,3.67
2022-08-26T22:49:31.844Z,3.80
2022-08-26T22:51:59.172Z,3.83
2022-08-26T22:54:26.271Z,3.92
2022-08-26T22:56:53.554Z,4.60
2022-08-26T22:59:20.770Z,3.75
2022-08-26T23:01:48.078Z,4.05
2022-08-26T23:04:15.541Z,3.22
2022-08-26T23:06:47.277Z,3.33
2022-08-26T23:09:18.247Z,2.95
2022-08-26T23:11:47.481Z,3.10
2022-08-26T23:14:15.810Z,2.45
2022-08-26T23:19:12.438Z,3.75
2022-08-26T23:21:40.198Z,4.00
2022-08-26T23:24:09.890Z,3.40
2022-08-26T23:26:38.730Z,4.13
2022-08-26T23:29:07.737Z,3.80
2022-08-26T23:31:36.584Z,3.63
2022-08-26T23:34:22.717Z,3.83
2022-08-26T23:36:52.764Z,4.30
2022-08-26T23:39:25.605Z,3.42
2022-08-26T23:41:52.639Z,3.10
2022-08-26T23:44:20.815Z,3.55
2022-08-26T23:49:15.219Z,3.78
2022-08-26T23:52:00.780Z,3.60
2022-08-26T23:54:28.051Z,3.55
2022-08-26T23:56:55.111Z,3.88
2022-08-26T23:59:22.121Z,3.92
